createdAt,value
2022-08-23T00:00:12.008Z,388
2022-08-23T00:01:07.448Z,393
2022-08-23T00:02:06.955Z,404
2022-08-23T00:03:06.962Z,399
2022-08-23T00:04:07.401Z,393
2022-08-23T00:05:09.742Z,391
2022-08-23T00:06:07.459Z,397
2022-08-23T00:07:07.487Z,393
2022-08-23T00:08:07.322Z,395
2022-08-23T00:09:07.498Z,390
2022-08-23T00:10:07.536Z,391
2022-08-23T00:11:07.524Z,400
2022-08-23T00:12:07.557Z,404
2022-08-23T00:13:07.117Z,408
2022-08-23T00:14:07.510Z,402
2022-08-23T00:15:08.026Z,399
2022-08-23T00:16:07.236Z,406
2022-08-23T00:17:07.622Z,409
2022-08-23T00:18:07.097Z,405
2022-08-23T00:19:07.148Z,414
2022-08-23T00:20:07.341Z,412
2022-08-23T00:21:07.315Z,406
2022-08-23T00:22:07.411Z,409
2022-08-23T00:23:07.238Z,403
2022-08-23T00:24:07.548Z,405
2022-08-23T00:25:07.072Z,407
2022-08-23T00:26:07.318Z,415
2022-08-23T00:27:07.280Z,405
2022-08-23T00:28:12.520Z,416
2022-08-23T00:29:06.977Z,418
2022-08-23T00:30:07.583Z,415
2022-08-23T00:31:07.459Z,411
2022-08-23T00:32:07.631Z,407
2022-08-23T00:33:07.150Z,398
2022-08-23T00:34:07.212Z,417
2022-08-23T00:35:07.524Z,422
2022-08-23T00:36:07.817Z,407
2022-08-23T00:37:07.050Z,402
2022-08-23T00:38:31.940Z,403
2022-08-23T00:40:07.196Z,405
2022-08-23T00:41:07.590Z,411
2022-08-23T00:42:07.004Z,416
2022-08-23T00:43:07.053Z,409
2022-08-23T00:44:07.163Z,411
2022-08-23T00:45:07.631Z,409
2022-08-23T00:46:06.965Z,414
2022-08-23T00:47:07.350Z,422
2022-08-23T00:48:07.481Z,414
2022-08-23T00:49:07.562Z,420
2022-08-23T00:50:23.402Z,421
2022-08-23T00:51:07.306Z,423
2022-08-23T00:52:07.506Z,412
2022-08-23T00:53:07.583Z,421
2022-08-23T00:54:06.982Z,411
2022-08-23T00:55:07.034Z,418
2022-08-23T00:56:07.064Z,399
2022-08-23T00:57:07.385Z,395
2022-08-23T00:58:07.282Z,409
2022-08-23T00:59:07.344Z,406
2022-08-23T01:00:08.319Z,401
2022-08-23T01:01:07.526Z,403
2022-08-23T01:02:07.714Z,408
2022-08-23T01:03:07.321Z,400
2022-08-23T01:04:07.395Z,406
2022-08-23T01:06:06.986Z,409
2022-08-23T01:07:07.077Z,408
2022-08-23T01:08:06.996Z,405
2022-08-23T01:09:07.435Z,395
2022-08-23T01:10:07.761Z,394
2022-08-23T01:11:08.667Z,408
2022-08-23T01:12:07.057Z,416
2022-08-23T01:13:07.205Z,414
2022-08-23T01:15:08.015Z,410
2022-08-23T01:16:07.447Z,417
2022-08-23T01:17:07.847Z,411
2022-08-23T01:18:07.309Z,407
2022-08-23T01:19:07.292Z,393
2022-08-23T01:20:07.451Z,397
2022-08-23T01:21:10.349Z,402
2022-08-23T01:22:07.105Z,403
2022-08-23T01:23:07.043Z,409
2022-08-23T01:24:07.198Z,403
2022-08-23T01:25:08.919Z,420
2022-08-23T01:26:07.475Z,406
2022-08-23T01:27:07.433Z,412
2022-08-23T01:28:07.427Z,415
2022-08-23T01:29:07.321Z,408
2022-08-23T01:30:07.641Z,401
2022-08-23T01:31:06.928Z,406
2022-08-23T01:32:07.191Z,412
2022-08-23T01:33:07.284Z,410
2022-08-23T01:34:07.193Z,402
2022-08-23T01:35:07.475Z,411
2022-08-23T01:36:09.868Z,414
2022-08-23T01:37:07.426Z,409
2022-08-23T01:38:07.514Z,407
2022-08-23T01:39:07.692Z,414
2022-08-23T01:40:07.309Z,391
2022-08-23T01:41:07.547Z,405
2022-08-23T01:42:07.858Z,398
2022-08-23T01:43:07.352Z,401
2022-08-23T01:44:07.355Z,400
2022-08-23T01:45:07.938Z,405
2022-08-23T01:46:07.220Z,416
2022-08-23T01:47:07.375Z,418
2022-08-23T01:48:07.380Z,407
2022-08-23T01:49:08.476Z,411
2022-08-23T01:50:07.784Z,410
2022-08-23T01:51:07.013Z,417
2022-08-23T01:52:07.410Z,412
2022-08-23T01:53:07.355Z,410
2022-08-23T01:54:07.464Z,407
2022-08-23T01:55:07.697Z,393
2022-08-23T01:56:07.313Z,409
2022-08-23T01:57:07.395Z,424
2022-08-23T01:58:07.317Z,422
2022-08-23T01:59:07.201Z,396
2022-08-23T02:00:08.147Z,398
2022-08-23T02:01:07.428Z,408
2022-08-23T02:02:07.658Z,417
2022-08-23T02:03:06.975Z,421
2022-08-23T02:04:07.079Z,412
2022-08-23T02:05:07.471Z,410
2022-08-23T02:06:07.847Z,411
2022-08-23T02:07:07.080Z,410
2022-08-23T02:08:07.421Z,416
2022-08-23T02:09:17.967Z,414
2022-08-23T02:10:07.290Z,406
2022-08-23T02:11:07.497Z,401
2022-08-23T02:12:07.778Z,398
2022-08-23T02:13:07.187Z,395
2022-08-23T02:14:07.262Z,392
2022-08-23T02:16:07.302Z,405
2022-08-23T02:17:07.080Z,410
2022-08-23T02:18:07.281Z,402
2022-08-23T02:19:07.560Z,403
2022-08-23T02:20:07.877Z,397
2022-08-23T02:22:07.442Z,405
2022-08-23T02:23:07.601Z,393
2022-08-23T02:24:07.577Z,382
2022-08-23T02:25:07.042Z,396
2022-08-23T02:26:07.112Z,377
2022-08-23T02:27:07.174Z,382
2022-08-23T02:28:07.280Z,394
2022-08-23T02:29:07.427Z,393
2022-08-23T02:30:08.090Z,395
2022-08-23T02:31:07.070Z,398
2022-08-23T02:32:07.688Z,393
2022-08-23T02:33:06.997Z,392
2022-08-23T02:34:07.193Z,393
2022-08-23T02:35:07.229Z,391
2022-08-23T02:36:07.176Z,405
2022-08-23T02:37:07.128Z,408
2022-08-23T02:38:07.547Z,399
2022-08-23T02:39:07.533Z,397
2022-08-23T02:40:07.184Z,390
2022-08-23T02:41:07.558Z,416
2022-08-23T02:42:07.560Z,409
2022-08-23T02:43:07.344Z,398
2022-08-23T02:44:07.551Z,404
2022-08-23T02:45:07.414Z,413
2022-08-23T02:46:07.267Z,404
2022-08-23T02:47:07.581Z,397
2022-08-23T02:48:07.772Z,411
2022-08-23T02:49:07.252Z,407
2022-08-23T02:50:07.658Z,403
2022-08-23T02:51:07.164Z,397
2022-08-23T02:52:07.090Z,392
2022-08-23T02:53:07.408Z,399
2022-08-23T02:54:07.551Z,395
2022-08-23T02:55:07.265Z,389
2022-08-23T02:56:17.034Z,427
2022-08-23T02:57:07.169Z,388
2022-08-23T02:58:07.116Z,393
2022-08-23T02:59:07.335Z,404
2022-08-23T03:00:08.311Z,402
2022-08-23T03:01:07.268Z,403
2022-08-23T03:02:07.385Z,415
2022-08-23T03:03:07.608Z,414
2022-08-23T03:04:07.027Z,410
2022-08-23T03:05:07.296Z,397
2022-08-23T03:06:25.524Z,392
2022-08-23T03:07:07.392Z,407
2022-08-23T03:08:07.393Z,421
2022-08-23T03:10:06.921Z,420
2022-08-23T03:11:09.762Z,394
2022-08-23T03:12:07.354Z,434
2022-08-23T03:13:07.486Z,416
2022-08-23T03:14:07.382Z,404
2022-08-23T03:15:07.494Z,398
2022-08-23T03:16:06.787Z,409
2022-08-23T03:17:07.107Z,412
2022-08-23T03:18:06.944Z,406
2022-08-23T03:19:06.997Z,394
2022-08-23T03:20:07.162Z,399
2022-08-23T03:21:07.258Z,405
2022-08-23T03:23:07.555Z,397
2022-08-23T03:24:10.332Z,385
2022-08-23T03:25:07.411Z,396
2022-08-23T03:26:07.619Z,393
2022-08-23T03:27:07.647Z,386
2022-08-23T03:28:07.145Z,394
2022-08-23T03:29:07.386Z,400
2022-08-23T03:30:09.503Z,396
2022-08-23T03:31:07.241Z,391
2022-08-23T03:32:07.336Z,400
2022-08-23T03:33:07.073Z,405
2022-08-23T03:34:07.035Z,401
2022-08-23T03:35:14.366Z,402
2022-08-23T03:36:07.523Z,412
2022-08-23T03:37:07.596Z,414
2022-08-23T03:38:07.135Z,409
2022-08-23T03:39:07.388Z,404
2022-08-23T03:40:07.694Z,401
2022-08-23T03:41:07.128Z,389
2022-08-23T03:42:07.819Z,381
2022-08-23T03:43:07.416Z,436
2022-08-23T03:44:07.618Z,393
2022-08-23T03:45:08.153Z,400
2022-08-23T03:46:07.345Z,408
2022-08-23T03:47:07.612Z,401
2022-08-23T03:48:07.163Z,405
2022-08-23T03:49:07.062Z,404
2022-08-23T03:50:07.151Z,400
2022-08-23T03:51:07.431Z,386
2022-08-23T03:52:07.523Z,402
2022-08-23T03:53:06.880Z,405
2022-08-23T03:54:07.424Z,415
2022-08-23T03:55:07.462Z,412
2022-08-23T03:56:07.519Z,409
2022-08-23T03:57:07.910Z,421
2022-08-23T03:58:07.316Z,423
2022-08-23T03:59:07.662Z,398
2022-08-23T04:00:07.832Z,401
2022-08-23T04:01:06.995Z,407
2022-08-23T04:02:07.478Z,426
2022-08-23T04:03:07.508Z,427
2022-08-23T04:04:07.724Z,398
2022-08-23T04:05:07.005Z,399
2022-08-23T04:06:07.119Z,413
2022-08-23T04:07:07.320Z,422
2022-08-23T04:08:07.328Z,418
2022-08-23T04:09:07.420Z,423
2022-08-23T04:10:07.661Z,408
2022-08-23T04:11:06.662Z,407
2022-08-23T04:12:11.992Z,424
2022-08-23T04:13:07.418Z,421
2022-08-23T04:14:07.355Z,416
2022-08-23T04:15:07.712Z,414
2022-08-23T04:16:06.722Z,405
2022-08-23T04:17:06.763Z,402
2022-08-23T04:18:07.098Z,408
2022-08-23T04:19:08.776Z,413
2022-08-23T04:20:07.176Z,408
2022-08-23T04:21:07.214Z,404
2022-08-23T04:22:07.153Z,403
2022-08-23T04:23:07.140Z,401
2022-08-23T04:25:12.320Z,412
2022-08-23T04:26:09.845Z,417
2022-08-23T04:27:07.079Z,415
2022-08-23T04:28:07.604Z,409
2022-08-23T04:29:07.169Z,406
2022-08-23T04:30:08.354Z,412
2022-08-23T04:31:07.614Z,405
2022-08-23T04:32:07.797Z,408
2022-08-23T04:33:09.997Z,417
2022-08-23T04:34:07.465Z,409
2022-08-23T04:35:07.125Z,416
2022-08-23T04:36:07.301Z,418
2022-08-23T04:37:09.564Z,413
2022-08-23T04:38:23.929Z,412
2022-08-23T04:39:07.355Z,408
2022-08-23T04:40:07.518Z,409
2022-08-23T04:41:11.267Z,405
2022-08-23T04:42:07.095Z,404
2022-08-23T04:43:07.525Z,415
2022-08-23T04:44:07.129Z,425
2022-08-23T04:45:07.417Z,418
2022-08-23T04:46:07.781Z,416
2022-08-23T04:47:07.138Z,401
2022-08-23T04:48:11.706Z,410
2022-08-23T04:49:07.304Z,413
2022-08-23T04:50:07.392Z,420
2022-08-23T04:51:07.624Z,411
2022-08-23T04:52:06.836Z,408
2022-08-23T04:54:07.635Z,412
2022-08-23T04:55:06.900Z,421
2022-08-23T04:56:07.187Z,416
2022-08-23T04:57:07.302Z,423
2022-08-23T04:58:07.577Z,422
2022-08-23T05:00:07.650Z,425
2022-08-23T05:01:07.282Z,416
2022-08-23T05:02:07.079Z,404
2022-08-23T05:03:07.240Z,416
2022-08-23T05:04:07.348Z,433
2022-08-23T05:05:07.840Z,431
2022-08-23T05:06:07.157Z,424
2022-08-23T05:09:07.434Z,432
2022-08-23T05:10:07.667Z,430
2022-08-23T05:11:07.029Z,438
2022-08-23T05:12:07.182Z,425
2022-08-23T05:13:07.471Z,428
2022-08-23T05:14:07.606Z,431
2022-08-23T05:15:08.004Z,429
2022-08-23T05:16:07.318Z,420
2022-08-23T05:17:07.676Z,410
2022-08-23T05:18:07.479Z,439
2022-08-23T05:19:07.655Z,418
2022-08-23T05:20:07.042Z,414
2022-08-23T05:21:07.272Z,422
2022-08-23T05:22:07.465Z,429
2022-08-23T05:23:07.275Z,421
2022-08-23T05:24:07.619Z,419
2022-08-23T05:25:07.137Z,420
2022-08-23T05:26:07.366Z,421
2022-08-23T05:27:10.629Z,435
2022-08-23T05:28:06.762Z,443
2022-08-23T05:29:06.963Z,446
2022-08-23T05:30:07.531Z,438
2022-08-23T05:31:10.428Z,437
2022-08-23T05:32:07.035Z,438
2022-08-23T05:33:07.387Z,427
2022-08-23T05:34:07.510Z,430
2022-08-23T05:35:07.918Z,427
2022-08-23T05:36:07.184Z,420
2022-08-23T05:37:07.247Z,421
2022-08-23T05:38:07.418Z,417
2022-08-23T05:39:07.849Z,419
2022-08-23T05:40:07.515Z,416
2022-08-23T05:41:07.218Z,420
2022-08-23T05:42:07.405Z,419
2022-08-23T05:43:07.246Z,418
2022-08-23T05:44:07.445Z,430
2022-08-23T05:45:07.553Z,417
2022-08-23T05:46:07.034Z,409
2022-08-23T05:47:10.534Z,412
2022-08-23T05:48:07.511Z,400
2022-08-23T05:49:07.592Z,436
2022-08-23T05:50:07.643Z,394
2022-08-23T05:51:07.159Z,404
2022-08-23T05:52:07.568Z,408
2022-08-23T05:53:07.015Z,415
2022-08-23T05:54:07.403Z,420
2022-08-23T05:55:07.824Z,407
2022-08-23T05:56:07.296Z,414
2022-08-23T05:57:07.667Z,410
2022-08-23T05:58:07.116Z,407
2022-08-23T05:59:07.605Z,417
2022-08-23T06:00:08.612Z,420
2022-08-23T06:02:07.688Z,418
2022-08-23T06:04:07.508Z,419
2022-08-23T06:05:07.971Z,429
2022-08-23T06:06:07.109Z,404
2022-08-23T06:07:07.214Z,402
2022-08-23T06:08:07.446Z,412
2022-08-23T06:09:07.524Z,417
2022-08-23T06:10:06.783Z,420
2022-08-23T06:11:07.157Z,433
2022-08-23T06:12:07.173Z,431
2022-08-23T06:13:07.254Z,417
2022-08-23T06:14:07.632Z,419
2022-08-23T06:15:07.139Z,422
2022-08-23T06:16:14.753Z,407
2022-08-23T06:17:07.715Z,395
2022-08-23T06:18:07.027Z,396
2022-08-23T06:19:07.189Z,406
2022-08-23T06:20:07.699Z,412
2022-08-23T06:21:07.210Z,403
2022-08-23T06:22:07.365Z,397
2022-08-23T06:23:07.683Z,392
2022-08-23T06:24:07.302Z,387
2022-08-23T06:25:09.718Z,393
2022-08-23T06:26:07.075Z,408
2022-08-23T06:27:07.288Z,405
2022-08-23T06:28:07.727Z,407
2022-08-23T06:30:07.486Z,409
2022-08-23T06:31:07.694Z,404
2022-08-23T06:32:07.359Z,398
2022-08-23T06:34:07.595Z,399
2022-08-23T06:35:36.824Z,403
2022-08-23T06:36:07.135Z,401
2022-08-23T06:37:07.436Z,396
2022-08-23T06:38:07.600Z,394
2022-08-23T06:39:07.734Z,395
2022-08-23T06:40:07.002Z,398
2022-08-23T06:42:22.203Z,385
2022-08-23T06:43:07.195Z,380
2022-08-23T06:44:07.392Z,382
2022-08-23T06:45:07.739Z,369
2022-08-23T06:46:06.934Z,379
2022-08-23T06:47:07.601Z,378
2022-08-23T06:48:06.925Z,375
2022-08-23T06:49:07.060Z,371
2022-08-23T06:50:07.460Z,375
2022-08-23T06:51:07.226Z,364
2022-08-23T06:52:07.368Z,368
2022-08-23T06:53:10.029Z,369
2022-08-23T06:54:07.601Z,362
2022-08-23T06:55:11.754Z,374
2022-08-23T06:56:07.079Z,389
2022-08-23T06:57:07.191Z,378
2022-08-23T06:58:07.372Z,361
2022-08-23T06:59:07.608Z,367
2022-08-23T07:00:07.575Z,372
2022-08-23T07:01:14.639Z,371
2022-08-23T07:03:07.779Z,349
2022-08-23T07:04:07.249Z,355
2022-08-23T07:05:07.927Z,366
2022-08-23T07:06:07.221Z,356
2022-08-23T07:07:11.395Z,349
2022-08-23T07:08:07.231Z,348
2022-08-23T07:09:07.500Z,352
2022-08-23T07:10:07.128Z,360
2022-08-23T07:11:07.341Z,352
2022-08-23T07:13:07.204Z,356
2022-08-23T07:14:07.526Z,363
2022-08-23T07:15:07.443Z,351
2022-08-23T07:16:07.909Z,381
2022-08-23T07:17:07.504Z,345
2022-08-23T07:18:07.728Z,352
2022-08-23T07:19:07.096Z,358
2022-08-23T07:20:07.701Z,361
2022-08-23T07:21:07.228Z,357
2022-08-23T07:22:07.520Z,370
2022-08-23T07:23:06.944Z,366
2022-08-23T07:24:07.349Z,361
2022-08-23T07:25:07.673Z,354
2022-08-23T07:26:07.047Z,359
2022-08-23T07:27:07.370Z,368
2022-08-23T07:28:11.510Z,361
2022-08-23T07:29:07.044Z,355
2022-08-23T07:30:07.369Z,371
2022-08-23T07:31:12.341Z,366
2022-08-23T07:32:07.669Z,353
2022-08-23T07:33:07.387Z,355
2022-08-23T07:34:07.449Z,363
2022-08-23T07:35:07.677Z,365
2022-08-23T07:36:07.242Z,360
2022-08-23T07:37:11.271Z,353
2022-08-23T07:38:06.904Z,357
2022-08-23T07:39:07.167Z,359
2022-08-23T07:40:07.499Z,368
2022-08-23T07:41:06.943Z,366
2022-08-23T07:42:23.174Z,367
2022-08-23T07:43:07.496Z,361
2022-08-23T07:44:06.956Z,369
2022-08-23T07:45:09.956Z,336
2022-08-23T07:46:07.035Z,333
2022-08-23T07:47:07.486Z,345
2022-08-23T07:48:07.778Z,355
2022-08-23T07:49:07.696Z,354
2022-08-23T07:50:07.141Z,362
2022-08-23T07:51:07.263Z,350
2022-08-23T07:52:07.742Z,347
2022-08-23T07:53:07.021Z,355
2022-08-23T07:54:07.321Z,367
2022-08-23T07:56:07.013Z,344
2022-08-23T07:57:07.895Z,388
2022-08-23T07:58:07.026Z,363
2022-08-23T07:59:07.449Z,348
2022-08-23T08:00:09.277Z,341
2022-08-23T08:01:06.917Z,344
2022-08-23T08:02:07.435Z,349
2022-08-23T08:03:07.244Z,364
2022-08-23T08:04:07.324Z,371
2022-08-23T08:05:07.581Z,365
2022-08-23T08:06:07.115Z,361
2022-08-23T08:07:19.373Z,363
2022-08-23T08:08:07.463Z,352
2022-08-23T08:09:07.697Z,362
2022-08-23T08:10:07.007Z,344
2022-08-23T08:11:07.024Z,369
2022-08-23T08:12:07.706Z,359
2022-08-23T08:13:06.905Z,357
2022-08-23T08:14:07.016Z,363
2022-08-23T08:15:07.659Z,360
2022-08-23T08:16:06.977Z,352
2022-08-23T08:17:07.311Z,346
2022-08-23T08:18:07.348Z,352
2022-08-23T08:19:07.834Z,357
2022-08-23T08:20:26.203Z,362
2022-08-23T08:21:07.455Z,367
2022-08-23T08:22:07.609Z,347
2022-08-23T08:23:07.040Z,387
2022-08-23T08:24:07.569Z,362
2022-08-23T08:25:07.161Z,369
2022-08-23T08:27:07.939Z,372
2022-08-23T08:28:09.462Z,358
2022-08-23T08:29:07.241Z,359
2022-08-23T08:30:07.714Z,365
2022-08-23T08:31:07.881Z,353
2022-08-23T08:32:07.410Z,358
2022-08-23T08:33:07.189Z,351
2022-08-23T08:34:07.476Z,356
2022-08-23T08:35:08.105Z,354
2022-08-23T08:36:07.237Z,361
2022-08-23T08:37:07.430Z,349
2022-08-23T08:38:07.999Z,361
2022-08-23T08:39:07.241Z,362
2022-08-23T08:40:08.002Z,361
2022-08-23T08:41:07.255Z,365
2022-08-23T08:42:07.196Z,360
2022-08-23T08:43:07.475Z,361
2022-08-23T08:44:07.817Z,365
2022-08-23T08:45:07.562Z,350
2022-08-23T08:46:06.912Z,362
2022-08-23T08:47:07.011Z,371
2022-08-23T08:49:06.904Z,342
2022-08-23T08:50:07.369Z,362
2022-08-23T08:51:07.142Z,363
2022-08-23T08:52:07.368Z,359
2022-08-23T08:53:07.639Z,366
2022-08-23T08:54:07.037Z,375
2022-08-23T08:55:07.634Z,376
2022-08-23T08:57:07.652Z,368
2022-08-23T08:58:07.174Z,360
2022-08-23T08:59:07.444Z,356
2022-08-23T09:00:08.449Z,372
2022-08-23T09:01:07.276Z,389
2022-08-23T09:02:32.032Z,378
2022-08-23T09:03:07.167Z,383
2022-08-23T09:04:07.774Z,367
2022-08-23T09:05:07.285Z,364
2022-08-23T09:06:07.985Z,371
2022-08-23T09:07:07.985Z,372
2022-08-23T09:08:07.052Z,378
2022-08-23T09:09:07.272Z,379
2022-08-23T09:10:07.885Z,370
2022-08-23T09:11:06.846Z,363
2022-08-23T09:12:07.519Z,369
2022-08-23T09:13:07.872Z,366
2022-08-23T09:14:07.066Z,347
2022-08-23T09:15:07.520Z,349
2022-08-23T09:16:07.146Z,360
2022-08-23T09:17:07.573Z,362
2022-08-23T09:18:07.653Z,368
2022-08-23T09:19:07.183Z,359
2022-08-23T09:20:07.491Z,349
2022-08-23T09:21:07.790Z,354
2022-08-23T09:22:07.441Z,350
2022-08-23T09:23:07.227Z,367
2022-08-23T09:24:07.749Z,378
2022-08-23T09:25:07.976Z,370
2022-08-23T09:26:07.536Z,379
2022-08-23T09:27:07.627Z,372
2022-08-23T09:28:07.412Z,359
2022-08-23T09:29:07.152Z,361
2022-08-23T09:30:07.785Z,373
2022-08-23T09:31:08.409Z,366
2022-08-23T09:32:07.129Z,358
2022-08-23T09:33:07.135Z,353
2022-08-23T09:34:07.393Z,355
2022-08-23T09:35:08.017Z,356
2022-08-23T09:36:08.427Z,362
2022-08-23T09:37:06.899Z,363
2022-08-23T09:38:07.123Z,360
2022-08-23T09:39:07.360Z,371
2022-08-23T09:40:07.922Z,373
2022-08-23T09:41:07.273Z,363
2022-08-23T09:42:07.575Z,346
2022-08-23T09:43:06.922Z,344
2022-08-23T09:44:06.835Z,349
2022-08-23T09:45:07.294Z,356
2022-08-23T09:46:07.168Z,353
2022-08-23T09:48:07.132Z,371
2022-08-23T09:49:07.549Z,368
2022-08-23T09:50:07.829Z,365
2022-08-23T09:51:07.231Z,362
2022-08-23T09:53:07.751Z,369
2022-08-23T09:54:07.604Z,372
2022-08-23T09:55:07.307Z,365
2022-08-23T09:56:07.304Z,370
2022-08-23T09:57:07.117Z,372
2022-08-23T09:58:07.641Z,352
2022-08-23T09:59:07.139Z,354
2022-08-23T10:00:08.414Z,353
2022-08-23T10:01:07.589Z,345
2022-08-23T10:02:08.241Z,391
2022-08-23T10:03:07.081Z,379
2022-08-23T10:04:07.674Z,361
2022-08-23T10:05:07.148Z,370
2022-08-23T10:06:07.158Z,378
2022-08-23T10:07:07.738Z,376
2022-08-23T10:08:10.462Z,378
2022-08-23T10:09:07.330Z,370
2022-08-23T10:10:06.971Z,366
2022-08-23T10:11:07.033Z,361
2022-08-23T10:12:07.580Z,362
2022-08-23T10:13:07.222Z,360
2022-08-23T10:14:07.055Z,367
2022-08-23T10:15:07.776Z,351
2022-08-23T10:16:07.428Z,352
2022-08-23T10:17:15.197Z,345
2022-08-23T10:18:07.355Z,365
2022-08-23T10:19:07.500Z,362
2022-08-23T10:20:07.827Z,361
2022-08-23T10:21:07.564Z,373
2022-08-23T10:22:07.200Z,367
2022-08-23T10:26:07.672Z,351
2022-08-23T10:27:07.011Z,362
2022-08-23T10:28:07.424Z,359
2022-08-23T10:29:07.781Z,348
2022-08-23T10:30:07.665Z,345
2022-08-23T10:31:07.240Z,347
2022-08-23T10:32:07.689Z,354
2022-08-23T10:33:07.187Z,352
2022-08-23T10:34:07.330Z,345
2022-08-23T10:35:07.730Z,349
2022-08-23T10:36:07.463Z,344
2022-08-23T10:37:07.118Z,338
2022-08-23T10:38:07.415Z,354
2022-08-23T10:39:07.675Z,320
2022-08-23T10:40:07.510Z,315
2022-08-23T10:41:07.157Z,305
2022-08-23T10:42:07.430Z,314
2022-08-23T10:43:07.627Z,342
2022-08-23T10:44:06.977Z,352
2022-08-23T10:45:07.716Z,348
2022-08-23T10:46:07.330Z,347
2022-08-23T10:47:06.890Z,357
2022-08-23T10:48:07.009Z,368
2022-08-23T10:49:07.170Z,351
2022-08-23T10:50:07.418Z,348
2022-08-23T10:51:07.696Z,338
2022-08-23T10:52:07.474Z,349
2022-08-23T10:53:06.928Z,348
2022-08-23T10:54:07.203Z,362
2022-08-23T10:55:07.591Z,350
2022-08-23T10:56:07.078Z,346
2022-08-23T10:57:07.374Z,347
2022-08-23T10:59:06.954Z,349
2022-08-23T11:00:08.324Z,359
2022-08-23T11:01:07.265Z,349
2022-08-23T11:02:07.640Z,386
2022-08-23T11:03:06.999Z,367
2022-08-23T11:04:07.494Z,354
2022-08-23T11:05:07.790Z,342
2022-08-23T11:06:07.622Z,350
2022-08-23T11:07:07.196Z,349
2022-08-23T11:08:07.556Z,342
2022-08-23T11:09:07.642Z,344
2022-08-23T11:10:07.516Z,349
2022-08-23T11:11:07.056Z,357
2022-08-23T11:12:10.961Z,347
2022-08-23T11:14:07.481Z,314
2022-08-23T11:15:08.302Z,325
2022-08-23T11:16:08.142Z,341
2022-08-23T11:17:08.260Z,344
2022-08-23T11:18:07.659Z,355
2022-08-23T11:19:07.264Z,347
2022-08-23T11:20:07.806Z,344
2022-08-23T11:21:07.170Z,356
2022-08-23T11:22:07.625Z,351
2022-08-23T11:23:07.152Z,352
2022-08-23T11:24:07.566Z,369
2022-08-23T11:25:08.785Z,338
2022-08-23T11:26:07.011Z,341
2022-08-23T11:27:07.605Z,352
2022-08-23T11:28:07.228Z,343
2022-08-23T11:29:07.437Z,349
2022-08-23T11:30:07.923Z,351
2022-08-23T11:31:07.495Z,359
2022-08-23T11:32:07.604Z,355
2022-08-23T11:33:07.642Z,343
2022-08-23T11:34:07.678Z,345
2022-08-23T11:35:07.248Z,354
2022-08-23T11:36:07.934Z,306
2022-08-23T11:37:07.345Z,327
2022-08-23T11:38:07.570Z,349
2022-08-23T11:39:07.021Z,354
2022-08-23T11:40:07.493Z,349
2022-08-23T11:41:06.922Z,352
2022-08-23T11:42:07.296Z,343
2022-08-23T11:43:07.530Z,346
2022-08-23T11:44:07.025Z,355
2022-08-23T11:45:07.639Z,364
2022-08-23T11:46:07.283Z,352
2022-08-23T11:47:07.736Z,335
2022-08-23T11:48:07.520Z,334
2022-08-23T11:49:07.574Z,332
2022-08-23T11:50:07.364Z,347
2022-08-23T11:52:07.624Z,352
2022-08-23T11:53:07.431Z,348
2022-08-23T11:54:07.599Z,351
2022-08-23T11:55:07.796Z,339
2022-08-23T11:56:08.028Z,336
2022-08-23T11:57:07.657Z,329
2022-08-23T11:58:07.942Z,359
2022-08-23T11:59:08.727Z,346
2022-08-23T12:00:08.299Z,348
2022-08-23T12:01:07.691Z,342
2022-08-23T12:02:07.277Z,341
2022-08-23T12:03:07.596Z,342
2022-08-23T12:04:07.670Z,351
2022-08-23T12:05:07.614Z,361
2022-08-23T12:06:07.756Z,359
2022-08-23T12:07:07.358Z,339
2022-08-23T12:08:07.600Z,344
2022-08-23T12:09:07.043Z,332
2022-08-23T12:10:07.685Z,341
2022-08-23T12:11:07.306Z,344
2022-08-23T12:12:07.508Z,338
2022-08-23T12:13:06.983Z,352
2022-08-23T12:14:07.517Z,349
2022-08-23T12:15:07.376Z,350
2022-08-23T12:16:07.126Z,348
2022-08-23T12:17:07.227Z,346
2022-08-23T12:18:07.240Z,342
2022-08-23T12:19:07.947Z,390
2022-08-23T12:20:06.978Z,375
2022-08-23T12:21:07.129Z,345
2022-08-23T12:22:07.588Z,363
2022-08-23T12:24:07.755Z,360
2022-08-23T12:25:07.350Z,357
2022-08-23T12:26:07.557Z,354
2022-08-23T12:27:07.348Z,351
2022-08-23T12:29:07.617Z,356
2022-08-23T12:30:07.679Z,354
2022-08-23T12:31:13.060Z,352
2022-08-23T12:32:07.769Z,333
2022-08-23T12:33:07.097Z,348
2022-08-23T12:34:07.364Z,352
2022-08-23T12:35:08.022Z,357
2022-08-23T12:36:07.619Z,352
2022-08-23T12:37:09.587Z,356
2022-08-23T12:38:07.052Z,361
2022-08-23T12:39:07.563Z,363
2022-08-23T12:40:07.956Z,346
2022-08-23T12:41:07.479Z,351
2022-08-23T12:42:07.255Z,349
2022-08-23T12:43:07.613Z,355
2022-08-23T12:44:07.604Z,346
2022-08-23T12:45:08.459Z,341
2022-08-23T12:46:07.027Z,350
2022-08-23T12:47:08.422Z,364
2022-08-23T12:48:07.238Z,355
2022-08-23T12:49:07.933Z,338
2022-08-23T12:50:07.624Z,354
2022-08-23T12:51:07.122Z,382
2022-08-23T12:52:07.576Z,352
2022-08-23T12:53:07.292Z,358
2022-08-23T12:54:07.794Z,364
2022-08-23T12:55:07.538Z,349
2022-08-23T12:56:07.112Z,346
2022-08-23T12:57:07.672Z,341
2022-08-23T12:58:07.039Z,334
2022-08-23T12:59:07.387Z,333
2022-08-23T13:00:16.763Z,335
2022-08-23T13:01:07.630Z,345
2022-08-23T13:02:07.180Z,330
2022-08-23T13:03:07.603Z,343
2022-08-23T13:04:06.864Z,324
2022-08-23T13:05:11.453Z,322
2022-08-23T13:06:07.091Z,332
2022-08-23T13:07:07.663Z,346
2022-08-23T13:08:07.333Z,333
2022-08-23T13:09:07.904Z,336
2022-08-23T13:10:07.469Z,351
2022-08-23T13:11:08.721Z,353
2022-08-23T13:12:07.341Z,362
2022-08-23T13:13:07.783Z,358
2022-08-23T13:14:07.466Z,356
2022-08-23T13:15:07.207Z,357
2022-08-23T13:16:07.868Z,352
2022-08-23T13:17:07.212Z,343
2022-08-23T13:18:07.257Z,348
2022-08-23T13:19:07.475Z,342
2022-08-23T13:20:07.774Z,349
2022-08-23T13:21:07.101Z,354
2022-08-23T13:22:07.383Z,353
2022-08-23T13:23:07.484Z,366
2022-08-23T13:24:07.556Z,360
2022-08-23T13:25:28.813Z,361
2022-08-23T13:26:06.782Z,349
2022-08-23T13:27:07.313Z,335
2022-08-23T13:28:07.709Z,343
2022-08-23T13:29:07.299Z,349
2022-08-23T13:30:07.835Z,348
2022-08-23T13:31:07.823Z,351
2022-08-23T13:33:07.676Z,339
2022-08-23T13:34:07.181Z,335
2022-08-23T13:35:07.491Z,342
2022-08-23T13:36:12.921Z,328
2022-08-23T13:38:07.202Z,337
2022-08-23T13:39:07.713Z,343
2022-08-23T13:40:07.481Z,334
2022-08-23T13:41:07.126Z,353
2022-08-23T13:43:10.125Z,350
2022-08-23T13:46:07.115Z,358
2022-08-23T13:47:07.112Z,363
2022-08-23T13:49:07.694Z,368
2022-08-23T13:50:11.535Z,379
2022-08-23T13:51:07.098Z,376
2022-08-23T13:52:37.991Z,378
2022-08-23T13:53:15.132Z,334
2022-08-23T13:54:07.237Z,346
2022-08-23T13:55:07.928Z,344
2022-08-23T13:56:07.480Z,364
2022-08-23T13:57:07.238Z,354
2022-08-23T13:58:08.123Z,351
2022-08-23T13:59:07.766Z,348
2022-08-23T14:00:08.804Z,342
2022-08-23T14:01:07.966Z,350
2022-08-23T14:02:07.869Z,357
2022-08-23T14:03:07.473Z,317
2022-08-23T14:04:07.992Z,342
2022-08-23T14:05:08.059Z,350
2022-08-23T14:06:07.905Z,346
2022-08-23T14:07:07.537Z,338
2022-08-23T14:08:07.304Z,340
2022-08-23T14:09:08.018Z,338
2022-08-23T14:10:07.849Z,350
2022-08-23T14:11:07.681Z,346
2022-08-23T14:12:09.557Z,365
2022-08-23T14:13:07.467Z,369
2022-08-23T14:14:08.094Z,378
2022-08-23T14:15:08.063Z,353
2022-08-23T14:16:33.793Z,351
2022-08-23T14:17:10.628Z,350
2022-08-23T14:18:07.681Z,354
2022-08-23T14:20:43.521Z,363
2022-08-23T14:21:07.537Z,342
2022-08-23T14:22:07.874Z,358
2022-08-23T14:23:12.026Z,348
2022-08-23T14:24:08.051Z,341
2022-08-23T14:25:07.686Z,335
2022-08-23T14:26:07.095Z,336